createdAt,value
2023-01-08T00:02:16.010Z,100782.50
2023-01-08T00:04:42.547Z,100785.09
2023-01-08T00:07:09.097Z,100778.06
2023-01-08T00:09:35.670Z,100784.28
2023-01-08T00:12:02.079Z,100789.59
2023-01-08T00:14:28.597Z,100790.41
2023-01-08T00:16:55.152Z,100785.25
2023-01-08T00:19:21.665Z,100789.63
2023-01-08T00:21:48.098Z,100793.16
2023-01-08T00:24:14.701Z,100788.75
2023-01-08T00:26:41.168Z,100788.75
2023-01-08T00:29:07.593Z,100776.47
2023-01-08T00:31:34.051Z,100780.03
2023-01-08T00:34:00.474Z,100774.75
2023-01-08T00:36:26.995Z,100773.97
2023-01-08T00:38:53.436Z,100766.09
2023-01-08T00:41:19.897Z,100753.78
2023-01-08T00:43:46.451Z,100756.47
2023-01-08T00:46:12.913Z,100753.81
2023-01-08T00:48:39.410Z,100753.81
2023-01-08T00:51:06.425Z,100750.28
2023-01-08T00:53:32.972Z,100745.94
2023-01-08T00:56:00.176Z,100745.94
2023-01-08T00:58:26.608Z,100756.50
2023-01-08T01:00:53.156Z,100755.56
2023-01-08T01:03:19.595Z,100756.47
2023-01-08T01:05:46.144Z,100769.66
2023-01-08T01:08:12.577Z,100763.47
2023-01-08T01:10:41.535Z,100762.59
2023-01-08T01:13:07.998Z,100780.22
2023-01-08T01:15:35.465Z,100781.09
2023-01-08T01:18:01.990Z,100770.53
2023-01-08T01:20:28.558Z,100780.25
2023-01-08T01:22:55.056Z,100771.47
2023-01-08T01:25:21.435Z,100768.84
2023-01-08T01:27:47.953Z,100777.59
2023-01-08T01:30:14.475Z,100767.97
2023-01-08T01:32:40.946Z,100767.12
2023-01-08T01:35:07.558Z,100768.84
2023-01-08T01:37:33.979Z,100766.25
2023-01-08T01:40:00.402Z,100759.34
2023-01-08T01:42:43.884Z,100751.38
2023-01-08T01:45:17.960Z,100749.59
2023-01-08T01:47:48.459Z,100739.94
2023-01-08T01:50:19.056Z,100732.03
2023-01-08T01:52:50.579Z,100727.66
2023-01-08T01:55:17.084Z,100721.53
2023-01-08T01:57:45.419Z,100720.62
2023-01-08T02:00:12.103Z,100715.47
2023-01-08T02:02:38.593Z,100714.59
2023-01-08T02:05:05.243Z,100705.78
2023-01-08T02:07:38.026Z,100711.13
2023-01-08T02:10:11.488Z,100695.34
2023-01-08T02:12:54.674Z,100700.53
2023-01-08T02:15:27.588Z,100692.56
2023-01-08T02:18:10.373Z,100700.50
2023-01-08T02:20:41.007Z,100697.91
2023-01-08T02:23:07.543Z,100700.63
2023-01-08T02:25:42.965Z,100694.47
2023-01-08T02:28:09.901Z,100697.97
2023-01-08T02:30:36.397Z,100689.16
2023-01-08T02:33:03.029Z,100689.16
2023-01-08T02:35:58.668Z,100683.97
2023-01-08T02:38:25.099Z,100682.34
2023-01-08T02:40:57.354Z,100680.56
2023-01-08T02:43:26.271Z,100690.28
2023-01-08T02:45:57.307Z,100687.63
2023-01-08T02:48:42.669Z,100685.00
2023-01-08T02:51:13.263Z,100678.84
2023-01-08T02:53:40.958Z,100673.56
2023-01-08T02:56:08.372Z,100680.69
2023-01-08T02:58:35.324Z,100677.06
2023-01-08T03:01:05.252Z,100679.72
2023-01-08T03:03:32.269Z,100670.03
2023-01-08T03:06:02.418Z,100676.22
2023-01-08T03:08:28.873Z,100676.22
2023-01-08T03:11:00.948Z,100673.59
2023-01-08T03:13:30.945Z,100667.44
2023-01-08T03:15:58.734Z,100663.94
2023-01-08T03:18:26.952Z,100662.22
2023-01-08T03:20:53.407Z,100656.94
2023-01-08T03:23:19.819Z,100651.63
2023-01-08T03:25:46.492Z,100654.31
2023-01-08T03:28:18.847Z,100653.59
2023-01-08T03:30:45.404Z,100656.22
2023-01-08T03:33:12.136Z,100659.78
2023-01-08T03:35:38.572Z,100655.38
2023-01-08T03:38:11.144Z,100652.75
2023-01-08T03:40:39.598Z,100650.03
2023-01-08T03:43:05.987Z,100650.94
2023-01-08T03:45:32.399Z,100644.81
2023-01-08T03:47:58.790Z,100642.19
2023-01-08T03:50:26.565Z,100639.56
2023-01-08T03:52:52.946Z,100638.75
2023-01-08T03:55:19.408Z,100636.16
2023-01-08T03:57:45.849Z,100629.19
2023-01-08T04:00:12.640Z,100630.09
2023-01-08T04:02:39.137Z,100628.28
2023-01-08T04:05:05.794Z,100630.37
2023-01-08T04:07:32.238Z,100624.28
2023-01-08T04:09:58.683Z,100623.13
2023-01-08T04:12:25.089Z,100624.50
2023-01-08T04:14:51.487Z,100626.25
2023-01-08T04:17:17.926Z,100617.81
2023-01-08T04:19:44.360Z,100614.47
2023-01-08T04:22:11.257Z,100613.16
2023-01-08T04:24:37.653Z,100609.06
2023-01-08T04:27:04.122Z,100617.94
2023-01-08T04:29:30.519Z,100621.50
2023-01-08T04:31:56.900Z,100617.78
2023-01-08T04:34:23.289Z,100608.81
2023-01-08T04:36:49.677Z,100615.12
2023-01-08T04:39:16.089Z,100610.81
2023-01-08T04:41:42.532Z,100613.16
2023-01-08T04:44:09.065Z,100619.66
2023-01-08T04:46:35.501Z,100619.47
2023-01-08T04:49:01.964Z,100619.87
2023-01-08T04:51:28.405Z,100616.03
2023-01-08T04:53:54.904Z,100614.84
2023-01-08T04:56:21.335Z,100617.22
2023-01-08T04:58:47.870Z,100620.53
2023-01-08T05:01:16.296Z,100620.34
2023-01-08T05:03:42.752Z,100620.22
2023-01-08T05:06:09.205Z,100616.34
2023-01-08T05:08:35.584Z,100615.25
2023-01-08T05:11:02.163Z,100625.66
2023-01-08T05:13:29.171Z,100617.53
2023-01-08T05:15:58.486Z,100609.38
2023-01-08T05:18:24.889Z,100614.44
2023-01-08T05:20:51.315Z,100613.47
2023-01-08T05:23:17.703Z,100605.28
2023-01-08T05:25:44.116Z,100597.91
2023-01-08T05:28:10.531Z,100599.41
2023-01-08T05:30:37.238Z,100594.56
2023-01-08T05:33:03.657Z,100602.25
2023-01-08T05:35:30.242Z,100602.91
2023-01-08T05:37:59.134Z,100600.09
2023-01-08T05:40:25.628Z,100591.00
2023-01-08T05:42:52.247Z,100599.63
2023-01-08T05:45:18.779Z,100596.09
2023-01-08T05:47:45.312Z,100596.87
2023-01-08T05:50:11.771Z,100589.56
2023-01-08T05:52:38.147Z,100592.03
2023-01-08T05:55:04.771Z,100579.34
2023-01-08T05:57:31.219Z,100586.53
2023-01-08T05:59:57.697Z,100588.25
2023-01-08T06:02:24.137Z,100581.03
2023-01-08T06:04:50.634Z,100581.81
2023-01-08T06:07:17.043Z,100569.13
2023-01-08T06:09:43.501Z,100573.41
2023-01-08T06:12:09.976Z,100574.41
2023-01-08T06:14:36.383Z,100570.75
2023-01-08T06:17:02.790Z,100568.91
2023-01-08T06:19:29.240Z,100565.16
2023-01-08T06:21:55.633Z,100570.53
2023-01-08T06:24:22.022Z,100569.53
2023-01-08T06:26:48.420Z,100564.91
2023-01-08T06:29:14.841Z,100572.75
2023-01-08T06:31:41.348Z,100570.91
2023-01-08T06:34:07.896Z,100563.63
2023-01-08T06:36:34.347Z,100561.88
2023-01-08T06:39:00.740Z,100557.31
2023-01-08T06:41:27.144Z,100557.06
2023-01-08T06:43:53.576Z,100560.59
2023-01-08T06:46:20.055Z,100568.53
2023-01-08T06:48:46.484Z,100557.56
2023-01-08T06:51:12.941Z,100565.50
2023-01-08T06:53:39.428Z,100555.63
2023-01-08T06:56:07.576Z,100562.72
2023-01-08T06:58:34.004Z,100567.09
2023-01-08T07:01:00.464Z,100575.91
2023-01-08T07:03:27.012Z,100560.75
2023-01-08T07:05:53.599Z,100568.69
2023-01-08T07:08:20.294Z,100560.66
2023-01-08T07:10:46.758Z,100563.22
2023-01-08T07:13:13.219Z,100563.09
2023-01-08T07:15:39.989Z,100561.25
2023-01-08T07:18:06.794Z,100565.03
2023-01-08T07:20:33.694Z,100576.50
2023-01-08T07:23:03.835Z,100559.53
2023-01-08T07:25:30.877Z,100569.22
2023-01-08T07:27:57.605Z,100571.03
2023-01-08T07:30:29.683Z,100564.69
2023-01-08T07:33:00.551Z,100563.59
2023-01-08T07:35:27.332Z,100567.13
2023-01-08T07:37:53.730Z,100566.16
2023-01-08T07:40:20.139Z,100556.16
2023-01-08T07:42:46.526Z,100556.16
2023-01-08T07:45:12.939Z,100552.50
2023-01-08T07:47:39.362Z,100556.03
2023-01-08T07:50:06.083Z,100554.09
2023-01-08T07:52:32.499Z,100548.63
2023-01-08T07:54:58.912Z,100553.00
2023-01-08T07:57:25.316Z,100545.84
2023-01-08T07:59:51.720Z,100553.88
2023-01-08T08:02:18.273Z,100545.56
2023-01-08T08:04:44.867Z,100552.78
2023-01-08T08:07:11.311Z,100536.69
2023-01-08T08:09:37.704Z,100550.72
2023-01-08T08:12:04.627Z,100545.34
2023-01-08T08:14:31.045Z,100548.03
2023-01-08T08:16:57.427Z,100536.19
2023-01-08T08:19:23.853Z,100541.47
2023-01-08T08:21:50.241Z,100528.13
2023-01-08T08:24:16.885Z,100532.56
2023-01-08T08:26:43.262Z,100528.03
2023-01-08T08:29:09.685Z,100523.25
2023-01-08T08:31:36.183Z,100514.34
2023-01-08T08:34:02.826Z,100509.75
2023-01-08T08:36:29.581Z,100516.81
2023-01-08T08:38:55.990Z,100507.06
2023-01-08T08:41:22.372Z,100510.59
2023-01-08T08:43:51.309Z,100500.56
2023-01-08T08:46:17.780Z,100501.56
2023-01-08T08:48:45.108Z,100500.72
2023-01-08T08:51:11.650Z,100498.03
2023-01-08T08:53:38.101Z,100497.16
2023-01-08T08:56:04.670Z,100505.00
2023-01-08T08:58:31.084Z,100505.00
2023-01-08T09:01:00.831Z,100503.16
2023-01-08T09:03:27.271Z,100500.06
2023-01-08T09:05:53.745Z,100505.59
2023-01-08T09:08:20.141Z,100504.75
2023-01-08T09:10:46.536Z,100505.41
2023-01-08T09:13:12.962Z,100497.25
2023-01-08T09:15:39.445Z,100495.63
2023-01-08T09:18:05.908Z,100502.50
2023-01-08T09:20:32.341Z,100494.47
2023-01-08T09:22:59.207Z,100493.72
2023-01-08T09:25:25.719Z,100503.78
2023-01-08T09:28:02.133Z,100499.44
2023-01-08T09:30:28.630Z,100502.81
2023-01-08T09:33:01.368Z,100490.06
2023-01-08T09:35:28.684Z,100493.19
2023-01-08T09:37:55.236Z,100484.28
2023-01-08T09:40:41.607Z,100497.25
2023-01-08T09:43:07.997Z,100486.16
2023-01-08T09:45:35.424Z,100473.22
2023-01-08T09:48:02.657Z,100478.84
2023-01-08T09:50:29.288Z,100470.06
2023-01-08T09:52:55.723Z,100453.22
2023-01-08T09:55:22.192Z,100452.44
2023-01-08T09:57:48.619Z,100445.84
2023-01-08T10:00:15.840Z,100441.75
2023-01-08T10:02:42.483Z,100435.31
2023-01-08T10:05:12.963Z,100438.00
2023-01-08T10:07:39.377Z,100434.97
2023-01-08T10:10:06.043Z,100418.97
2023-01-08T10:12:32.816Z,100421.78
2023-01-08T10:15:03.045Z,100416.25
2023-01-08T10:17:39.337Z,100404.16
2023-01-08T10:20:10.791Z,100397.00
2023-01-08T10:22:37.211Z,100400.19
2023-01-08T10:25:05.547Z,100390.91
2023-01-08T10:27:31.982Z,100399.25
2023-01-08T10:30:04.561Z,100387.72
2023-01-08T10:32:31.920Z,100378.88
2023-01-08T10:34:58.473Z,100378.94
2023-01-08T10:37:27.944Z,100378.28
2023-01-08T10:39:55.227Z,100383.53
2023-01-08T10:42:21.788Z,100378.12
2023-01-08T10:44:51.727Z,100374.25
2023-01-08T10:47:18.219Z,100369.37
2023-01-08T10:49:45.392Z,100371.78
2023-01-08T10:52:24.616Z,100359.00
2023-01-08T10:54:51.059Z,100360.41
2023-01-08T10:57:24.871Z,100354.63
2023-01-08T10:59:51.369Z,100347.88
2023-01-08T11:02:38.923Z,100350.00
2023-01-08T11:05:07.540Z,100358.38
2023-01-08T11:07:35.388Z,100352.37
2023-01-08T11:10:01.809Z,100351.88
2023-01-08T11:12:40.858Z,100344.34
2023-01-08T11:15:19.670Z,100341.03
2023-01-08T11:17:46.122Z,100334.25
2023-01-08T11:20:22.641Z,100321.28
2023-01-08T11:22:49.194Z,100321.47
2023-01-08T11:25:18.157Z,100313.81
2023-01-08T11:27:44.683Z,100311.34
2023-01-08T11:30:15.580Z,100300.16
2023-01-08T11:32:42.072Z,100302.09
2023-01-08T11:35:19.361Z,100291.69
2023-01-08T11:37:51.945Z,100284.81
2023-01-08T11:40:19.032Z,100287.50
2023-01-08T11:42:51.508Z,100276.25
2023-01-08T11:45:21.583Z,100271.91
2023-01-08T11:48:06.903Z,100269.38
2023-01-08T11:50:41.793Z,100271.22
2023-01-08T11:53:28.455Z,100270.44
2023-01-08T11:56:13.863Z,100264.41
2023-01-08T11:58:44.841Z,100256.56
2023-01-08T12:01:20.419Z,100254.03
2023-01-08T12:03:51.732Z,100247.94
2023-01-08T12:06:21.225Z,100239.22
2023-01-08T12:09:03.687Z,100248.00
2023-01-08T12:11:37.068Z,100240.16
2023-01-08T12:14:12.719Z,100242.88
2023-01-08T12:16:43.826Z,100240.34
2023-01-08T12:19:16.085Z,100240.41
2023-01-08T12:21:53.248Z,100237.88
2023-01-08T12:24:22.939Z,100238.06
2023-01-08T12:26:58.436Z,100239.78
2023-01-08T12:29:47.088Z,100237.22
2023-01-08T12:32:22.022Z,100229.41
2023-01-08T12:34:54.530Z,100231.25
2023-01-08T12:37:20.888Z,100235.72
2023-01-08T12:40:10.592Z,100243.69
2023-01-08T12:42:38.444Z,100236.72
2023-01-08T12:45:07.208Z,100233.31
2023-01-08T12:47:34.289Z,100235.16
2023-01-08T12:50:10.157Z,100226.41
2023-01-08T12:52:56.916Z,100223.00
2023-01-08T12:55:35.698Z,100222.19
2023-01-08T12:58:19.641Z,100216.09
2023-01-08T13:00:51.862Z,100228.50
2023-01-08T13:03:19.743Z,100218.94
2023-01-08T13:05:46.141Z,100217.25
2023-01-08T13:08:24.199Z,100207.69
2023-01-08T13:10:51.127Z,100219.22
2023-01-08T13:13:30.626Z,100217.53
2023-01-08T13:16:06.220Z,100213.16
2023-01-08T13:18:32.627Z,100219.38
2023-01-08T13:21:02.308Z,100208.84
2023-01-08T13:23:29.307Z,100205.34
2023-01-08T13:25:56.156Z,100208.91
2023-01-08T13:28:26.972Z,100204.56
2023-01-08T13:30:55.616Z,100210.81
2023-01-08T13:33:26.243Z,100199.38
2023-01-08T13:35:53.039Z,100209.09
2023-01-08T13:38:20.763Z,100206.53
2023-01-08T13:40:50.133Z,100215.38
2023-01-08T13:43:19.493Z,100202.22
2023-01-08T13:45:55.187Z,100204.94
2023-01-08T13:48:22.492Z,100206.72
2023-01-08T13:50:49.109Z,100193.53
2023-01-08T13:53:15.775Z,100199.75
2023-01-08T13:55:43.161Z,100193.69
2023-01-08T13:58:12.238Z,100191.91
2023-01-08T14:00:43.757Z,100191.03
2023-01-08T14:03:28.585Z,100193.72
2023-01-08T14:06:07.352Z,100189.34
2023-01-08T14:08:33.851Z,100201.72
2023-01-08T14:11:00.277Z,100192.94
2023-01-08T14:13:27.356Z,100196.44
2023-01-08T14:16:01.360Z,100185.00
2023-01-08T14:18:28.568Z,100191.28
2023-01-08T14:20:55.028Z,100194.81
2023-01-08T14:23:23.579Z,100199.25
2023-01-08T14:25:50.103Z,100194.91
2023-01-08T14:28:17.875Z,100197.53
2023-01-08T14:30:51.057Z,100196.69
2023-01-08T14:33:17.566Z,100196.69
2023-01-08T14:35:44.008Z,100200.19
2023-01-08T14:38:11.145Z,100198.47
2023-01-08T14:40:38.564Z,100190.59
2023-01-08T14:43:09.512Z,100198.50
2023-01-08T14:45:36.295Z,100194.13
2023-01-08T14:48:08.958Z,100196.78
2023-01-08T14:50:39.644Z,100197.72
2023-01-08T14:53:07.583Z,100198.62
2023-01-08T14:55:35.318Z,100193.41
2023-01-08T14:58:02.073Z,100189.03
2023-01-08T15:00:29.227Z,100188.19
2023-01-08T15:02:55.723Z,100191.75
2023-01-08T15:05:29.237Z,100187.41
2023-01-08T15:08:00.081Z,100191.84
2023-01-08T15:10:31.810Z,100183.16
2023-01-08T15:13:03.909Z,100177.88
2023-01-08T15:15:30.663Z,100182.34
2023-01-08T15:17:57.058Z,100190.25
2023-01-08T15:20:25.111Z,100181.47
2023-01-08T15:22:51.624Z,100183.22
2023-01-08T15:25:23.089Z,100183.25
2023-01-08T15:27:53.634Z,100175.41
2023-01-08T15:30:24.245Z,100176.34
2023-01-08T15:32:50.738Z,100182.50
2023-01-08T15:35:17.594Z,100170.25
2023-01-08T15:37:44.104Z,100172.03
2023-01-08T15:40:13.661Z,100167.66
2023-01-08T15:42:58.982Z,100167.75
2023-01-08T15:45:29.079Z,100165.97
2023-01-08T15:47:55.584Z,100172.13
2023-01-08T15:50:22.060Z,100161.63
2023-01-08T15:52:48.626Z,100161.56
2023-01-08T15:55:21.128Z,100145.87
2023-01-08T15:57:47.774Z,100146.66
2023-01-08T16:00:14.849Z,100145.94
2023-01-08T16:02:47.989Z,100150.34
2023-01-08T16:05:14.943Z,100150.34
2023-01-08T16:07:41.359Z,100146.84
2023-01-08T16:10:09.061Z,100151.25
2023-01-08T16:12:35.608Z,100141.59
2023-01-08T16:15:02.024Z,100146.03
2023-01-08T16:17:38.987Z,100146.09
2023-01-08T16:20:05.808Z,100147.84
2023-01-08T16:22:35.541Z,100134.72
2023-01-08T16:25:02.055Z,100139.06
2023-01-08T16:27:29.947Z,100136.44
2023-01-08T16:29:56.361Z,100139.13
2023-01-08T16:32:22.813Z,100126.00
2023-01-08T16:34:49.217Z,100133.06
2023-01-08T16:37:15.621Z,100135.72
2023-01-08T16:39:42.158Z,100133.00
2023-01-08T16:42:09.744Z,100131.28
2023-01-08T16:44:36.376Z,100128.69
2023-01-08T16:47:02.805Z,100131.28
2023-01-08T16:49:29.352Z,100125.19
2023-01-08T16:51:55.865Z,100125.25
2023-01-08T16:54:22.859Z,100118.13
2023-01-08T16:56:49.282Z,100127.81
2023-01-08T16:59:23.333Z,100127.91
2023-01-08T17:01:50.477Z,100118.19
2023-01-08T17:04:17.480Z,100125.19
2023-01-08T17:06:43.918Z,100114.72
2023-01-08T17:09:11.714Z,100119.13
2023-01-08T17:11:38.360Z,100114.78
2023-01-08T17:14:04.827Z,100120.06
2023-01-08T17:16:31.255Z,100107.72
2023-01-08T17:18:57.815Z,100107.72
2023-01-08T17:21:24.280Z,100108.69
2023-01-08T17:23:50.712Z,100112.25
2023-01-08T17:26:20.140Z,100107.81
2023-01-08T17:28:47.381Z,100106.03
2023-01-08T17:31:14.581Z,100105.13
2023-01-08T17:33:41.062Z,100098.19
2023-01-08T17:36:14.100Z,100101.69
2023-01-08T17:38:40.721Z,100099.97
2023-01-08T17:41:09.183Z,100102.53
2023-01-08T17:43:38.591Z,100093.78
2023-01-08T17:46:05.442Z,100092.00
2023-01-08T17:48:32.139Z,100096.34
2023-01-08T17:51:00.380Z,100096.34
2023-01-08T17:53:27.201Z,100089.28
2023-01-08T17:55:53.699Z,100087.56
2023-01-08T17:58:20.371Z,100090.22
2023-01-08T18:00:46.801Z,100087.47
2023-01-08T18:03:13.579Z,100097.94
2023-01-08T18:05:39.964Z,100095.31
2023-01-08T18:08:06.374Z,100090.09
2023-01-08T18:10:32.811Z,100090.03
2023-01-08T18:12:59.288Z,100089.19
2023-01-08T18:15:25.776Z,100084.81
2023-01-08T18:17:52.795Z,100091.81
2023-01-08T18:20:19.228Z,100091.87
2023-01-08T18:22:46.267Z,100089.25
2023-01-08T18:25:12.789Z,100085.75
2023-01-08T18:27:39.213Z,100096.31
2023-01-08T18:30:06.069Z,100097.16
2023-01-08T18:32:32.567Z,100091.91
2023-01-08T18:34:59.178Z,100093.66
2023-01-08T18:37:26.752Z,100093.66
2023-01-08T18:39:53.139Z,100097.16
2023-01-08T18:42:25.711Z,100085.75
2023-01-08T18:44:55.966Z,100085.69
2023-01-08T18:47:23.648Z,100086.59
2023-01-08T18:49:53.988Z,100091.91
2023-01-08T18:52:20.689Z,100093.66
2023-01-08T18:54:47.094Z,100089.25
2023-01-08T18:57:13.477Z,100091.87
2023-01-08T18:59:40.121Z,100089.28
2023-01-08T19:02:06.737Z,100097.28
2023-01-08T19:04:33.295Z,100090.28
2023-01-08T19:06:59.703Z,100091.22
2023-01-08T19:09:26.213Z,100092.91
2023-01-08T19:11:52.628Z,100092.91
2023-01-08T19:14:19.064Z,100082.38
2023-01-08T19:16:51.123Z,100089.41
2023-01-08T19:19:18.447Z,100081.50
2023-01-08T19:21:44.959Z,100078.88
2023-01-08T19:24:11.419Z,100086.78
2023-01-08T19:26:37.967Z,100085.00
2023-01-08T19:29:05.051Z,100086.78
2023-01-08T19:31:31.649Z,100075.38
2023-01-08T19:33:58.593Z,100082.44
2023-01-08T19:36:25.972Z,100078.06
2023-01-08T19:38:52.728Z,100068.41
2023-01-08T19:41:38.913Z,100070.13
2023-01-08T19:44:05.555Z,100073.63
2023-01-08T19:46:32.020Z,100066.53
2023-01-08T19:48:58.822Z,100070.09
2023-01-08T19:51:25.364Z,100064.81
2023-01-08T19:53:52.200Z,100069.16
2023-01-08T19:56:18.568Z,100069.28
2023-01-08T19:58:44.949Z,100069.34
2023-01-08T20:01:29.558Z,100068.53
2023-01-08T20:03:56.204Z,100057.97
2023-01-08T20:06:23.446Z,100061.50
2023-01-08T20:08:50.570Z,100061.31
2023-01-08T20:11:16.992Z,100062.22
2023-01-08T20:13:43.444Z,100056.16
2023-01-08T20:16:11.312Z,100044.84
2023-01-08T20:18:37.842Z,100052.00
2023-01-08T20:21:04.351Z,100045.84
2023-01-08T20:23:30.768Z,100052.00
2023-01-08T20:26:00.259Z,100046.56
2023-01-08T20:28:26.677Z,100049.16
2023-01-08T20:30:53.124Z,100052.69
2023-01-08T20:33:19.552Z,100048.34
2023-01-08T20:35:45.999Z,100045.78
2023-01-08T20:38:12.420Z,100045.97
2023-01-08T20:40:38.885Z,100046.75
2023-01-08T20:43:05.377Z,100045.00
2023-01-08T20:45:31.939Z,100044.84
2023-01-08T20:47:58.497Z,100047.69
2023-01-08T20:50:25.006Z,100036.34
2023-01-08T20:52:51.540Z,100033.75
2023-01-08T20:55:18.751Z,100031.34
2023-01-08T20:57:45.317Z,100027.78
2023-01-08T21:00:12.164Z,100019.94
2023-01-08T21:02:38.612Z,100022.59
2023-01-08T21:05:05.217Z,100020.94
2023-01-08T21:07:31.629Z,100014.00
2023-01-08T21:09:58.083Z,100019.25
2023-01-08T21:12:24.502Z,100011.34
2023-01-08T21:14:50.957Z,100014.06
2023-01-08T21:17:17.351Z,100007.00
2023-01-08T21:19:43.814Z,100008.72
2023-01-08T21:22:10.262Z,100001.66
2023-01-08T21:24:36.835Z,100011.34
2023-01-08T21:27:03.627Z,100002.50
2023-01-08T21:29:30.025Z,100009.69
2023-01-08T21:31:56.541Z,100001.84
2023-01-08T21:34:22.985Z,100004.41
2023-01-08T21:36:49.503Z,100002.75
2023-01-08T21:39:15.958Z,100003.63
2023-01-08T21:42:17.759Z,100000.13
2023-01-08T21:45:02.685Z,99999.31
2023-01-08T21:47:29.163Z,99996.75
2023-01-08T21:49:55.557Z,99990.44
2023-01-08T21:52:40.716Z,99992.31
2023-01-08T21:55:07.270Z,99983.56
2023-01-08T21:57:37.749Z,99984.56
2023-01-08T22:00:04.375Z,99980.06
2023-01-08T22:02:30.779Z,99980.06
2023-01-08T22:04:57.217Z,99971.22
2023-01-08T22:07:24.123Z,99970.44
2023-01-08T22:09:50.552Z,99970.47
2023-01-08T22:12:17.140Z,99970.56
2023-01-08T22:14:43.749Z,99968.78
2023-01-08T22:17:10.307Z,99967.06
2023-01-08T22:19:39.662Z,99974.12
2023-01-08T22:22:06.871Z,99964.50
2023-01-08T22:24:34.625Z,99971.59
2023-01-08T22:27:01.042Z,99965.47
2023-01-08T22:29:27.455Z,99963.56
2023-01-08T22:31:53.935Z,99961.78
2023-01-08T22:34:20.343Z,99953.03
2023-01-08T22:36:46.918Z,99960.94
2023-01-08T22:39:13.361Z,99953.94
2023-01-08T22:41:39.803Z,99947.06
2023-01-08T22:44:06.243Z,99945.38
2023-01-08T22:46:32.825Z,99941.81
2023-01-08T22:48:59.290Z,99945.38
2023-01-08T22:51:28.596Z,99936.53
2023-01-08T22:53:55.393Z,99929.53
2023-01-08T22:56:21.851Z,99928.78
2023-01-08T22:58:48.281Z,99924.37
2023-01-08T23:01:15.747Z,99927.00
2023-01-08T23:03:44.362Z,99919.97
2023-01-08T23:06:11.677Z,99918.31
2023-01-08T23:08:38.424Z,99906.84
2023-01-08T23:11:05.185Z,99910.41
2023-01-08T23:13:31.788Z,99901.50
2023-01-08T23:15:58.249Z,99897.09
2023-01-08T23:18:24.797Z,99901.44
2023-01-08T23:20:51.195Z,99902.31
2023-01-08T23:23:17.633Z,99899.72
2023-01-08T23:25:44.067Z,99896.16
2023-01-08T23:28:10.492Z,99890.91
2023-01-08T23:30:36.934Z,99892.69
2023-01-08T23:33:03.403Z,99898.03
2023-01-08T23:35:29.827Z,99886.69
2023-01-08T23:37:56.249Z,99892.84
2023-01-08T23:40:22.684Z,99889.53
2023-01-08T23:42:49.097Z,99889.53
2023-01-08T23:45:15.531Z,99892.25
2023-01-08T23:47:41.956Z,99883.50
2023-01-08T23:50:08.672Z,99879.00
2023-01-08T23:52:35.123Z,99873.72
2023-01-08T23:55:01.527Z,99884.28
2023-01-08T23:57:27.919Z,99879.00
2023-01-08T23:59:54.784Z,99876.38
